sensor_id;sensor_type;location;lat;lon;timestamp;P1;durP1;ratioP1;P2;durP2;ratioP2
77148;SDS011;66122;47.130;16.844;2023-06-22T00:02:41;0.50;;;0.40;;
77148;SDS011;66122;47.130;16.844;2023-06-22T00:12:44;0.67;;;0.60;;
77148;SDS011;66122;47.130;16.844;2023-06-22T00:22:46;0.60;;;0.50;;
77148;SDS011;66122;47.130;16.844;2023-06-22T00:32:50;0.87;;;0.70;;
77148;SDS011;66122;47.130;16.844;2023-06-22T00:42:53;0.47;;;0.30;;
77148;SDS011;66122;47.130;16.844;2023-06-22T00:52:56;0.97;;;0.70;;
77148;SDS011;66122;47.130;16.844;2023-06-22T01:03:01;1.02;;;0.93;;
77148;SDS011;66122;47.130;16.844;2023-06-22T01:13:07;0.97;;;0.87;;
77148;SDS011;66122;47.130;16.844;2023-06-22T01:23:26;0.43;;;0.40;;
77148;SDS011;66122;47.130;16.844;2023-06-22T01:33:36;0.60;;;0.52;;
77148;SDS011;66122;47.130;16.844;2023-06-22T01:43:41;0.50;;;0.40;;
77148;SDS011;66122;47.130;16.844;2023-06-22T01:53:44;0.43;;;0.30;;
77148;SDS011;66122;47.130;16.844;2023-06-22T02:03:52;0.60;;;0.50;;
77148;SDS011;66122;47.130;16.844;2023-06-22T02:14:18;0.60;;;0.53;;
77148;SDS011;66122;47.130;16.844;2023-06-22T02:24:21;0.67;;;0.67;;
77148;SDS011;66122;47.130;16.844;2023-06-22T02:34:25;1.73;;;0.63;;
77148;SDS011;66122;47.130;16.844;2023-06-22T02:44:28;0.50;;;0.40;;
77148;SDS011;66122;47.130;16.844;2023-06-22T02:54:30;0.33;;;0.23;;
77148;SDS011;66122;47.130;16.844;2023-06-22T03:04:33;0.40;;;0.23;;
77148;SDS011;66122;47.130;16.844;2023-06-22T03:14:36;1.00;;;0.65;;
77148;SDS011;66122;47.130;16.844;2023-06-22T03:24:40;1.97;;;1.80;;
77148;SDS011;66122;47.130;16.844;2023-06-22T03:34:43;0.40;;;0.30;;
77148;SDS011;66122;47.130;16.844;2023-06-22T03:44:50;0.50;;;0.47;;
77148;SDS011;66122;47.130;16.844;2023-06-22T03:54:53;0.70;;;0.60;;
77148;SDS011;66122;47.130;16.844;2023-06-22T04:04:56;0.73;;;0.50;;
77148;SDS011;66122;47.130;16.844;2023-06-22T04:14:59;1.83;;;1.10;;
77148;SDS011;66122;47.130;16.844;2023-06-22T04:25:06;0.40;;;0.32;;
77148;SDS011;66122;47.130;16.844;2023-06-22T04:35:13;0.47;;;0.37;;
77148;SDS011;66122;47.130;16.844;2023-06-22T04:45:17;0.30;;;0.10;;
77148;SDS011;66122;47.130;16.844;2023-06-22T04:55:20;0.90;;;0.63;;
77148;SDS011;66122;47.130;16.844;2023-06-22T05:05:23;0.87;;;0.60;;
77148;SDS011;66122;47.130;16.844;2023-06-22T05:15:26;1.07;;;0.87;;
77148;SDS011;66122;47.130;16.844;2023-06-22T05:25:34;1.02;;;0.65;;
77148;SDS011;66122;47.130;16.844;2023-06-22T05:35:37;0.70;;;0.50;;
77148;SDS011;66122;47.130;16.844;2023-06-22T05:45:39;0.60;;;0.60;;
77148;SDS011;66122;47.130;16.844;2023-06-22T05:55:42;3.70;;;0.47;;
77148;SDS011;66122;47.130;16.844;2023-06-22T06:05:44;0.60;;;0.50;;
77148;SDS011;66122;47.130;16.844;2023-06-22T06:15:47;0.90;;;0.90;;
77148;SDS011;66122;47.130;16.844;2023-06-22T06:25:50;0.80;;;0.70;;
77148;SDS011;66122;47.130;16.844;2023-06-22T06:35:53;2.00;;;0.80;;
77148;SDS011;66122;47.130;16.844;2023-06-22T06:45:57;0.70;;;0.70;;
77148;SDS011;66122;47.130;16.844;2023-06-22T06:56:00;0.80;;;0.70;;
77148;SDS011;66122;47.130;16.844;2023-06-22T07:06:03;0.70;;;0.60;;
77148;SDS011;66122;47.130;16.844;2023-06-22T07:16:06;0.80;;;0.73;;
77148;SDS011;66122;47.130;16.844;2023-06-22T07:26:08;0.70;;;0.53;;
77148;SDS011;66122;47.130;16.844;2023-06-22T07:36:11;0.98;;;0.82;;
77148;SDS011;66122;47.130;16.844;2023-06-22T07:46:15;1.60;;;1.30;;
77148;SDS011;66122;47.130;16.844;2023-06-22T07:56:17;0.90;;;0.73;;
77148;SDS011;66122;47.130;16.844;2023-06-22T08:06:22;1.50;;;0.90;;
77148;SDS011;66122;47.130;16.844;2023-06-22T08:16:24;2.50;;;1.33;;
77148;SDS011;66122;47.130;16.844;2023-06-22T08:26:27;2.33;;;1.00;;
77148;SDS011;66122;47.130;16.844;2023-06-22T08:36:29;1.33;;;1.23;;
77148;SDS011;66122;47.130;16.844;2023-06-22T08:46:35;1.17;;;1.03;;
77148;SDS011;66122;47.130;16.844;2023-06-22T08:56:37;1.05;;;0.63;;
77148;SDS011;66122;47.130;16.844;2023-06-22T09:06:40;2.53;;;1.73;;
77148;SDS011;66122;47.130;16.844;2023-06-22T09:16:47;2.50;;;1.77;;
77148;SDS011;66122;47.130;16.844;2023-06-22T09:26:49;1.50;;;0.87;;
77148;SDS011;66122;47.130;16.844;2023-06-22T09:36:52;1.70;;;1.27;;
77148;SDS011;66122;47.130;16.844;2023-06-22T09:46:55;0.80;;;0.70;;
77148;SDS011;66122;47.130;16.844;2023-06-22T09:56:57;1.73;;;1.53;;
77148;SDS011;66122;47.130;16.844;2023-06-22T10:07:00;1.73;;;1.43;;
77148;SDS011;66122;47.130;16.844;2023-06-22T10:17:04;1.63;;;1.40;;
77148;SDS011;66122;47.130;16.844;2023-06-22T10:27:09;2.00;;;1.90;;
77148;SDS011;66122;47.130;16.844;2023-06-22T10:37:12;1.25;;;1.15;;
77148;SDS011;66122;47.130;16.844;2023-06-22T10:47:14;1.80;;;1.70;;
77148;SDS011;66122;47.130;16.844;2023-06-22T10:57:17;2.00;;;1.90;;
77148;SDS011;66122;47.130;16.844;2023-06-22T11:07:19;1.60;;;1.50;;
77148;SDS011;66122;47.130;16.844;2023-06-22T11:17:22;2.10;;;2.00;;
77148;SDS011;66122;47.130;16.844;2023-06-22T11:27:25;1.93;;;1.83;;
77148;SDS011;66122;47.130;16.844;2023-06-22T11:37:27;1.97;;;1.87;;
77148;SDS011;66122;47.130;16.844;2023-06-22T11:47:30;2.27;;;2.07;;
77148;SDS011;66122;47.130;16.844;2023-06-22T11:57:33;1.95;;;1.85;;
77148;SDS011;66122;47.130;16.844;2023-06-22T12:07:36;4.37;;;1.73;;
77148;SDS011;66122;47.130;16.844;2023-06-22T12:17:39;2.77;;;2.57;;
77148;SDS011;66122;47.130;16.844;2023-06-22T12:27:42;1.92;;;1.83;;
77148;SDS011;66122;47.130;16.844;2023-06-22T12:37:45;2.97;;;2.50;;
77148;SDS011;66122;47.130;16.844;2023-06-22T12:47:47;2.03;;;1.93;;
77148;SDS011;66122;47.130;16.844;2023-06-22T12:57:52;1.53;;;1.43;;
77148;SDS011;66122;47.130;16.844;2023-06-22T13:07:54;2.10;;;1.90;;
77148;SDS011;66122;47.130;16.844;2023-06-22T13:17:57;2.08;;;1.92;;
77148;SDS011;66122;47.130;16.844;2023-06-22T13:28:00;3.43;;;3.13;;
77148;SDS011;66122;47.130;16.844;2023-06-22T13:38:04;2.57;;;2.37;;
77148;SDS011;66122;47.130;16.844;2023-06-22T13:48:07;1.73;;;1.63;;
77148;SDS011;66122;47.130;16.844;2023-06-22T13:58:10;2.57;;;2.37;;
77148;SDS011;66122;47.130;16.844;2023-06-22T14:08:12;1.83;;;1.73;;
77148;SDS011;66122;47.130;16.844;2023-06-22T14:18:35;2.90;;;2.70;;
77148;SDS011;66122;47.130;16.844;2023-06-22T14:28:37;2.60;;;2.27;;
77148;SDS011;66122;47.130;16.844;2023-06-22T14:38:40;2.43;;;2.23;;
77148;SDS011;66122;47.130;16.844;2023-06-22T14:48:42;1.83;;;1.73;;
77148;SDS011;66122;47.130;16.844;2023-06-22T14:58:45;1.80;;;1.65;;
77148;SDS011;66122;47.130;16.844;2023-06-22T15:08:49;2.53;;;2.30;;
77148;SDS011;66122;47.130;16.844;2023-06-22T15:18:51;2.47;;;2.27;;
77148;SDS011;66122;47.130;16.844;2023-06-22T15:28:54;2.70;;;2.50;;
77148;SDS011;66122;47.130;16.844;2023-06-22T15:38:57;2.43;;;2.20;;
77148;SDS011;66122;47.130;16.844;2023-06-22T15:48:59;2.00;;;1.80;;
77148;SDS011;66122;47.130;16.844;2023-06-22T15:59:02;3.20;;;2.90;;
77148;SDS011;66122;47.130;16.844;2023-06-22T16:09:04;2.63;;;2.43;;
77148;SDS011;66122;47.130;16.844;2023-06-22T16:19:08;3.70;;;3.07;;
77148;SDS011;66122;47.130;16.844;2023-06-22T16:29:10;1.60;;;1.50;;
77148;SDS011;66122;47.130;16.844;2023-06-22T16:39:13;2.28;;;1.98;;
77148;SDS011;66122;47.130;16.844;2023-06-22T16:49:16;1.80;;;1.70;;
77148;SDS011;66122;47.130;16.844;2023-06-22T16:59:18;2.83;;;1.80;;
77148;SDS011;66122;47.130;16.844;2023-06-22T17:09:22;3.20;;;2.00;;
77148;SDS011;66122;47.130;16.844;2023-06-22T17:19:28;4.97;;;3.57;;
77148;SDS011;66122;47.130;16.844;2023-06-22T17:29:31;1.00;;;0.90;;
77148;SDS011;66122;47.130;16.844;2023-06-22T17:39:35;1.83;;;1.40;;
77148;SDS011;66122;47.130;16.844;2023-06-22T17:49:38;2.40;;;2.10;;
77148;SDS011;66122;47.130;16.844;2023-06-22T17:59:40;1.93;;;1.83;;
77148;SDS011;66122;47.130;16.844;2023-06-22T18:09:43;3.33;;;1.20;;
77148;SDS011;66122;47.130;16.844;2023-06-22T18:19:47;1.77;;;1.67;;
77148;SDS011;66122;47.130;16.844;2023-06-22T18:29:50;4.15;;;1.40;;
77148;SDS011;66122;47.130;16.844;2023-06-22T18:39:53;1.77;;;1.17;;
77148;SDS011;66122;47.130;16.844;2023-06-22T18:50:05;1.40;;;1.17;;
77148;SDS011;66122;47.130;16.844;2023-06-22T19:00:10;1.83;;;1.73;;
77148;SDS011;66122;47.130;16.844;2023-06-22T19:20:40;2.43;;;1.63;;
77148;SDS011;66122;47.130;16.844;2023-06-22T19:30:42;1.42;;;1.02;;
77148;SDS011;66122;47.130;16.844;2023-06-22T19:40:46;1.73;;;1.23;;
77148;SDS011;66122;47.130;16.844;2023-06-22T19:50:48;0.90;;;0.60;;
77148;SDS011;66122;47.130;16.844;2023-06-22T20:00:54;1.20;;;1.05;;
77148;SDS011;66122;47.130;16.844;2023-06-22T20:10:57;1.17;;;1.07;;
77148;SDS011;66122;47.130;16.844;2023-06-22T20:21:00;1.30;;;1.10;;
77148;SDS011;66122;47.130;16.844;2023-06-22T20:31:04;1.50;;;1.35;;
77148;SDS011;66122;47.130;16.844;2023-06-22T20:41:08;2.37;;;2.17;;
77148;SDS011;66122;47.130;16.844;2023-06-22T20:51:11;2.07;;;1.00;;
77148;SDS011;66122;47.130;16.844;2023-06-22T21:01:13;1.52;;;1.42;;
77148;SDS011;66122;47.130;16.844;2023-06-22T21:11:20;2.10;;;1.20;;
77148;SDS011;66122;47.130;16.844;2023-06-22T21:21:23;1.63;;;1.53;;
77148;SDS011;66122;47.130;16.844;2023-06-22T21:31:25;1.75;;;1.13;;
77148;SDS011;66122;47.130;16.844;2023-06-22T21:41:28;1.30;;;1.20;;
77148;SDS011;66122;47.130;16.844;2023-06-22T21:51:30;0.93;;;0.83;;
77148;SDS011;66122;47.130;16.844;2023-06-22T22:01:36;2.38;;;2.03;;
77148;SDS011;66122;47.130;16.844;2023-06-22T22:11:38;0.90;;;0.80;;
77148;SDS011;66122;47.130;16.844;2023-06-22T22:21:41;1.17;;;1.00;;
77148;SDS011;66122;47.130;16.844;2023-06-22T22:31:44;2.27;;;2.07;;
77148;SDS011;66122;47.130;16.844;2023-06-22T22:41:47;1.33;;;1.23;;
77148;SDS011;66122;47.130;16.844;2023-06-22T22:51:50;0.80;;;0.60;;
77148;SDS011;66122;47.130;16.844;2023-06-22T23:01:53;1.67;;;1.58;;
77148;SDS011;66122;47.130;16.844;2023-06-22T23:11:56;1.93;;;1.40;;
77148;SDS011;66122;47.130;16.844;2023-06-22T23:21:59;1.30;;;1.17;;
77148;SDS011;66122;47.130;16.844;2023-06-22T23:32:02;1.33;;;1.10;;
77148;SDS011;66122;47.130;16.844;2023-06-22T23:42:05;1.80;;;1.40;;
77148;SDS011;66122;47.130;16.844;2023-06-22T23:52:08;1.53;;;1.13;;
